sensor_id;sensor_type;location;lat;lon;timestamp;P1;durP1;ratioP1;P2;durP2;ratioP2
16693;SDS011;39538;52.196;9.892;2022-08-07T00:02:04;186.97;;;178.50;;
16693;SDS011;39538;52.196;9.892;2022-08-07T00:04:31;174.67;;;167.47;;
16693;SDS011;39538;52.196;9.892;2022-08-07T00:06:58;185.13;;;177.23;;
16693;SDS011;39538;52.196;9.892;2022-08-07T00:09:25;191.73;;;183.37;;
16693;SDS011;39538;52.196;9.892;2022-08-07T00:11:51;188.77;;;180.60;;
16693;SDS011;39538;52.196;9.892;2022-08-07T00:14:19;184.27;;;176.03;;
16693;SDS011;39538;52.196;9.892;2022-08-07T00:16:46;192.60;;;183.97;;
16693;SDS011;39538;52.196;9.892;2022-08-07T00:19:12;183.07;;;175.20;;
16693;SDS011;39538;52.196;9.892;2022-08-07T00:21:39;175.83;;;168.47;;
16693;SDS011;39538;52.196;9.892;2022-08-07T00:24:07;176.70;;;169.33;;
16693;SDS011;39538;52.196;9.892;2022-08-07T00:26:34;172.03;;;164.63;;
16693;SDS011;39538;52.196;9.892;2022-08-07T00:29:00;182.20;;;174.50;;
16693;SDS011;39538;52.196;9.892;2022-08-07T00:31:27;172.20;;;164.33;;
16693;SDS011;39538;52.196;9.892;2022-08-07T00:33:53;173.90;;;166.33;;
16693;SDS011;39538;52.196;9.892;2022-08-07T00:36:20;186.03;;;177.87;;
16693;SDS011;39538;52.196;9.892;2022-08-07T00:38:46;169.07;;;161.67;;
16693;SDS011;39538;52.196;9.892;2022-08-07T00:41:14;179.93;;;171.93;;
16693;SDS011;39538;52.196;9.892;2022-08-07T00:43:41;166.57;;;159.37;;
16693;SDS011;39538;52.196;9.892;2022-08-07T00:46:08;161.47;;;154.47;;
16693;SDS011;39538;52.196;9.892;2022-08-07T00:48:34;162.57;;;155.57;;
16693;SDS011;39538;52.196;9.892;2022-08-07T00:51:01;160.67;;;153.47;;
16693;SDS011;39538;52.196;9.892;2022-08-07T00:53:27;163.73;;;156.83;;
16693;SDS011;39538;52.196;9.892;2022-08-07T00:55:54;157.50;;;150.93;;
16693;SDS011;39538;52.196;9.892;2022-08-07T00:58:22;160.10;;;153.03;;
16693;SDS011;39538;52.196;9.892;2022-08-07T01:00:48;155.63;;;149.03;;
16693;SDS011;39538;52.196;9.892;2022-08-07T01:03:15;163.77;;;156.60;;
16693;SDS011;39538;52.196;9.892;2022-08-07T01:05:43;160.17;;;153.20;;
16693;SDS011;39538;52.196;9.892;2022-08-07T01:08:10;158.67;;;152.13;;
16693;SDS011;39538;52.196;9.892;2022-08-07T01:10:38;166.40;;;159.20;;
16693;SDS011;39538;52.196;9.892;2022-08-07T01:13:04;167.20;;;160.20;;
16693;SDS011;39538;52.196;9.892;2022-08-07T01:15:32;172.80;;;165.33;;
16693;SDS011;39538;52.196;9.892;2022-08-07T01:17:59;166.47;;;159.37;;
16693;SDS011;39538;52.196;9.892;2022-08-07T01:20:30;159.40;;;152.90;;
16693;SDS011;39538;52.196;9.892;2022-08-07T01:23:00;147.33;;;141.43;;
16693;SDS011;39538;52.196;9.892;2022-08-07T01:25:27;165.67;;;158.47;;
16693;SDS011;39538;52.196;9.892;2022-08-07T01:27:54;162.33;;;155.73;;
16693;SDS011;39538;52.196;9.892;2022-08-07T01:30:21;168.53;;;161.73;;
16693;SDS011;39538;52.196;9.892;2022-08-07T01:32:49;169.80;;;162.80;;
16693;SDS011;39538;52.196;9.892;2022-08-07T01:35:16;175.77;;;168.57;;
16693;SDS011;39538;52.196;9.892;2022-08-07T01:37:42;173.80;;;166.67;;
16693;SDS011;39538;52.196;9.892;2022-08-07T01:40:11;171.70;;;164.40;;
16693;SDS011;39538;52.196;9.892;2022-08-07T01:42:38;164.63;;;157.70;;
16693;SDS011;39538;52.196;9.892;2022-08-07T01:45:05;170.90;;;163.77;;
16693;SDS011;39538;52.196;9.892;2022-08-07T01:47:32;169.80;;;162.63;;
16693;SDS011;39538;52.196;9.892;2022-08-07T01:49:59;159.33;;;152.73;;
16693;SDS011;39538;52.196;9.892;2022-08-07T01:52:25;166.27;;;159.50;;
16693;SDS011;39538;52.196;9.892;2022-08-07T01:54:58;166.20;;;159.33;;
16693;SDS011;39538;52.196;9.892;2022-08-07T01:57:27;162.70;;;155.93;;
16693;SDS011;39538;52.196;9.892;2022-08-07T02:00:00;167.27;;;160.47;;
16693;SDS011;39538;52.196;9.892;2022-08-07T02:02:29;166.63;;;159.20;;
16693;SDS011;39538;52.196;9.892;2022-08-07T02:05:00;167.97;;;160.97;;
16693;SDS011;39538;52.196;9.892;2022-08-07T02:07:30;157.17;;;150.77;;
16693;SDS011;39538;52.196;9.892;2022-08-07T02:10:06;154.57;;;148.27;;
16693;SDS011;39538;52.196;9.892;2022-08-07T02:12:36;160.97;;;154.47;;
16693;SDS011;39538;52.196;9.892;2022-08-07T02:15:05;150.50;;;144.50;;
16693;SDS011;39538;52.196;9.892;2022-08-07T02:17:33;162.83;;;156.00;;
16693;SDS011;39538;52.196;9.892;2022-08-07T02:20:01;163.30;;;156.83;;
16693;SDS011;39538;52.196;9.892;2022-08-07T02:22:29;168.20;;;161.57;;
16693;SDS011;39538;52.196;9.892;2022-08-07T02:24:57;169.03;;;162.13;;
16693;SDS011;39538;52.196;9.892;2022-08-07T02:27:24;167.60;;;160.87;;
16693;SDS011;39538;52.196;9.892;2022-08-07T02:29:55;173.47;;;166.37;;
16693;SDS011;39538;52.196;9.892;2022-08-07T02:32:23;171.50;;;164.77;;
16693;SDS011;39538;52.196;9.892;2022-08-07T02:34:51;169.33;;;162.17;;
16693;SDS011;39538;52.196;9.892;2022-08-07T02:37:19;173.50;;;166.10;;
16693;SDS011;39538;52.196;9.892;2022-08-07T02:39:48;180.40;;;172.07;;
16693;SDS011;39538;52.196;9.892;2022-08-07T02:42:17;164.33;;;157.87;;
16693;SDS011;39538;52.196;9.892;2022-08-07T02:44:45;183.13;;;175.47;;
16693;SDS011;39538;52.196;9.892;2022-08-07T02:47:16;177.53;;;170.33;;
16693;SDS011;39538;52.196;9.892;2022-08-07T02:49:43;172.87;;;165.33;;
16693;SDS011;39538;52.196;9.892;2022-08-07T02:52:10;173.97;;;167.07;;
16693;SDS011;39538;52.196;9.892;2022-08-07T02:54:42;167.50;;;160.93;;
16693;SDS011;39538;52.196;9.892;2022-08-07T02:57:11;174.73;;;167.70;;
16693;SDS011;39538;52.196;9.892;2022-08-07T02:59:40;174.13;;;167.03;;
16693;SDS011;39538;52.196;9.892;2022-08-07T03:02:13;181.80;;;174.27;;
16693;SDS011;39538;52.196;9.892;2022-08-07T03:04:42;173.30;;;166.30;;
16693;SDS011;39538;52.196;9.892;2022-08-07T03:07:10;166.27;;;159.50;;
16693;SDS011;39538;52.196;9.892;2022-08-07T03:09:38;185.70;;;178.30;;
16693;SDS011;39538;52.196;9.892;2022-08-07T03:12:06;178.20;;;170.90;;
16693;SDS011;39538;52.196;9.892;2022-08-07T03:14:34;180.67;;;173.50;;
16693;SDS011;39538;52.196;9.892;2022-08-07T03:17:02;178.27;;;171.10;;
16693;SDS011;39538;52.196;9.892;2022-08-07T03:19:29;181.13;;;173.90;;
16693;SDS011;39538;52.196;9.892;2022-08-07T03:21:57;172.97;;;165.83;;
16693;SDS011;39538;52.196;9.892;2022-08-07T03:24:25;175.27;;;168.20;;
16693;SDS011;39538;52.196;9.892;2022-08-07T03:26:52;181.23;;;173.97;;
16693;SDS011;39538;52.196;9.892;2022-08-07T03:29:21;179.57;;;172.53;;
16693;SDS011;39538;52.196;9.892;2022-08-07T03:31:48;189.47;;;181.83;;
16693;SDS011;39538;52.196;9.892;2022-08-07T03:34:16;179.00;;;171.90;;
16693;SDS011;39538;52.196;9.892;2022-08-07T03:36:44;184.43;;;176.93;;
16693;SDS011;39538;52.196;9.892;2022-08-07T03:39:12;182.33;;;174.90;;
16693;SDS011;39538;52.196;9.892;2022-08-07T03:41:42;176.17;;;169.13;;
16693;SDS011;39538;52.196;9.892;2022-08-07T03:44:09;178.53;;;171.20;;
16693;SDS011;39538;52.196;9.892;2022-08-07T03:46:36;179.63;;;172.43;;
16693;SDS011;39538;52.196;9.892;2022-08-07T03:49:06;179.37;;;172.13;;
16693;SDS011;39538;52.196;9.892;2022-08-07T03:51:34;180.20;;;172.73;;
16693;SDS011;39538;52.196;9.892;2022-08-07T03:54:01;177.27;;;170.20;;
16693;SDS011;39538;52.196;9.892;2022-08-07T03:56:30;185.50;;;177.90;;
16693;SDS011;39538;52.196;9.892;2022-08-07T03:59:01;191.97;;;184.13;;
16693;SDS011;39538;52.196;9.892;2022-08-07T04:01:28;199.27;;;190.70;;
16693;SDS011;39538;52.196;9.892;2022-08-07T04:03:57;197.10;;;188.97;;
16693;SDS011;39538;52.196;9.892;2022-08-07T04:06:24;207.53;;;198.90;;
16693;SDS011;39538;52.196;9.892;2022-08-07T04:08:51;200.47;;;192.13;;
16693;SDS011;39538;52.196;9.892;2022-08-07T04:11:18;217.07;;;207.73;;
16693;SDS011;39538;52.196;9.892;2022-08-07T04:13:46;215.03;;;206.07;;
16693;SDS011;39538;52.196;9.892;2022-08-07T04:16:14;208.70;;;199.97;;
16693;SDS011;39538;52.196;9.892;2022-08-07T04:18:41;211.43;;;202.17;;
16693;SDS011;39538;52.196;9.892;2022-08-07T04:21:07;215.17;;;206.13;;
16693;SDS011;39538;52.196;9.892;2022-08-07T04:23:34;224.70;;;215.03;;
16693;SDS011;39538;52.196;9.892;2022-08-07T04:26:02;211.50;;;202.83;;
16693;SDS011;39538;52.196;9.892;2022-08-07T04:28:31;212.37;;;203.13;;
16693;SDS011;39538;52.196;9.892;2022-08-07T04:30:59;206.33;;;197.73;;
16693;SDS011;39538;52.196;9.892;2022-08-07T04:33:25;213.40;;;204.50;;
16693;SDS011;39538;52.196;9.892;2022-08-07T04:35:52;226.23;;;216.83;;
16693;SDS011;39538;52.196;9.892;2022-08-07T04:38:19;226.20;;;216.37;;
16693;SDS011;39538;52.196;9.892;2022-08-07T04:40:46;219.93;;;210.93;;
16693;SDS011;39538;52.196;9.892;2022-08-07T04:43:12;215.83;;;207.10;;
16693;SDS011;39538;52.196;9.892;2022-08-07T04:45:43;225.73;;;216.30;;
16693;SDS011;39538;52.196;9.892;2022-08-07T04:48:18;217.90;;;208.60;;
16693;SDS011;39538;52.196;9.892;2022-08-07T04:50:52;227.13;;;217.47;;
16693;SDS011;39538;52.196;9.892;2022-08-07T04:53:26;231.03;;;221.13;;
16693;SDS011;39538;52.196;9.892;2022-08-07T04:56:00;226.57;;;217.00;;
16693;SDS011;39538;52.196;9.892;2022-08-07T04:58:36;227.10;;;217.53;;
16693;SDS011;39538;52.196;9.892;2022-08-07T05:01:12;212.20;;;203.53;;
16693;SDS011;39538;52.196;9.892;2022-08-07T05:03:45;203.00;;;194.97;;
16693;SDS011;39538;52.196;9.892;2022-08-07T05:06:17;212.83;;;204.23;;
16693;SDS011;39538;52.196;9.892;2022-08-07T05:08:49;219.37;;;210.40;;
16693;SDS011;39538;52.196;9.892;2022-08-07T05:11:24;224.87;;;215.80;;
16693;SDS011;39538;52.196;9.892;2022-08-07T05:13:57;227.93;;;218.33;;
16693;SDS011;39538;52.196;9.892;2022-08-07T05:16:27;236.43;;;226.50;;
16693;SDS011;39538;52.196;9.892;2022-08-07T05:18:58;241.90;;;231.93;;
16693;SDS011;39538;52.196;9.892;2022-08-07T05:21:28;225.67;;;216.13;;
16693;SDS011;39538;52.196;9.892;2022-08-07T05:23:57;223.97;;;212.10;;
16693;SDS011;39538;52.196;9.892;2022-08-07T05:26:26;205.60;;;197.00;;
16693;SDS011;39538;52.196;9.892;2022-08-07T05:28:56;241.03;;;231.03;;
16693;SDS011;39538;52.196;9.892;2022-08-07T05:31:26;245.40;;;235.20;;
16693;SDS011;39538;52.196;9.892;2022-08-07T05:33:58;239.67;;;229.53;;
16693;SDS011;39538;52.196;9.892;2022-08-07T05:36:27;243.30;;;233.17;;
16693;SDS011;39538;52.196;9.892;2022-08-07T05:38:55;244.73;;;234.83;;
16693;SDS011;39538;52.196;9.892;2022-08-07T05:41:23;250.77;;;240.47;;
16693;SDS011;39538;52.196;9.892;2022-08-07T05:43:53;249.67;;;239.53;;
16693;SDS011;39538;52.196;9.892;2022-08-07T05:46:21;244.03;;;234.00;;
16693;SDS011;39538;52.196;9.892;2022-08-07T05:48:49;230.53;;;221.07;;
16693;SDS011;39538;52.196;9.892;2022-08-07T05:51:19;227.50;;;218.23;;
16693;SDS011;39538;52.196;9.892;2022-08-07T05:53:46;244.00;;;233.90;;
16693;SDS011;39538;52.196;9.892;2022-08-07T05:56:13;247.77;;;237.53;;
16693;SDS011;39538;52.196;9.892;2022-08-07T05:58:41;263.30;;;252.33;;
16693;SDS011;39538;52.196;9.892;2022-08-07T06:01:10;230.90;;;221.33;;
16693;SDS011;39538;52.196;9.892;2022-08-07T06:03:38;217.70;;;208.70;;
16693;SDS011;39538;52.196;9.892;2022-08-07T06:06:06;227.37;;;217.20;;
16693;SDS011;39538;52.196;9.892;2022-08-07T06:08:34;253.23;;;242.73;;
16693;SDS011;39538;52.196;9.892;2022-08-07T06:11:02;201.20;;;192.70;;
16693;SDS011;39538;52.196;9.892;2022-08-07T06:13:28;195.17;;;186.93;;
16693;SDS011;39538;52.196;9.892;2022-08-07T06:15:55;193.80;;;185.43;;
16693;SDS011;39538;52.196;9.892;2022-08-07T06:18:24;188.27;;;180.30;;
16693;SDS011;39538;52.196;9.892;2022-08-07T06:20:50;191.90;;;183.77;;
16693;SDS011;39538;52.196;9.892;2022-08-07T06:23:18;189.23;;;181.33;;
16693;SDS011;39538;52.196;9.892;2022-08-07T06:25:46;228.60;;;218.67;;
16693;SDS011;39538;52.196;9.892;2022-08-07T06:28:13;223.93;;;214.33;;
16693;SDS011;39538;52.196;9.892;2022-08-07T06:30:39;227.87;;;217.90;;
16693;SDS011;39538;52.196;9.892;2022-08-07T06:33:05;228.03;;;218.30;;
16693;SDS011;39538;52.196;9.892;2022-08-07T06:35:33;236.93;;;226.70;;
16693;SDS011;39538;52.196;9.892;2022-08-07T06:38:00;221.93;;;212.40;;
16693;SDS011;39538;52.196;9.892;2022-08-07T06:40:27;244.73;;;234.17;;
16693;SDS011;39538;52.196;9.892;2022-08-07T06:42:56;261.13;;;249.80;;
16693;SDS011;39538;52.196;9.892;2022-08-07T06:45:24;272.67;;;260.60;;
16693;SDS011;39538;52.196;9.892;2022-08-07T06:47:51;260.50;;;248.70;;
16693;SDS011;39538;52.196;9.892;2022-08-07T06:50:18;259.03;;;247.87;;
16693;SDS011;39538;52.196;9.892;2022-08-07T06:52:45;258.93;;;247.43;;
16693;SDS011;39538;52.196;9.892;2022-08-07T06:55:18;259.00;;;247.60;;
16693;SDS011;39538;52.196;9.892;2022-08-07T06:57:47;220.17;;;210.77;;
16693;SDS011;39538;52.196;9.892;2022-08-07T07:00:18;256.77;;;245.73;;
16693;SDS011;39538;52.196;9.892;2022-08-07T07:02:45;203.03;;;194.33;;
16693;SDS011;39538;52.196;9.892;2022-08-07T07:05:12;199.40;;;191.07;;
16693;SDS011;39538;52.196;9.892;2022-08-07T07:07:39;177.20;;;169.77;;
16693;SDS011;39538;52.196;9.892;2022-08-07T07:10:05;193.73;;;185.57;;
16693;SDS011;39538;52.196;9.892;2022-08-07T07:12:35;198.07;;;189.37;;
16693;SDS011;39538;52.196;9.892;2022-08-07T07:15:05;207.00;;;198.13;;
16693;SDS011;39538;52.196;9.892;2022-08-07T07:17:39;203.57;;;194.33;;
16693;SDS011;39538;52.196;9.892;2022-08-07T07:20:12;199.03;;;189.87;;
16693;SDS011;39538;52.196;9.892;2022-08-07T07:22:43;205.20;;;196.13;;
16693;SDS011;39538;52.196;9.892;2022-08-07T07:25:11;174.87;;;167.07;;
16693;SDS011;39538;52.196;9.892;2022-08-07T07:27:40;185.03;;;176.57;;
16693;SDS011;39538;52.196;9.892;2022-08-07T07:30:10;182.73;;;174.70;;
16693;SDS011;39538;52.196;9.892;2022-08-07T07:32:39;170.93;;;163.30;;
16693;SDS011;39538;52.196;9.892;2022-08-07T07:35:08;182.07;;;173.77;;
16693;SDS011;39538;52.196;9.892;2022-08-07T07:37:36;173.10;;;165.33;;
16693;SDS011;39538;52.196;9.892;2022-08-07T07:40:07;156.63;;;149.67;;
16693;SDS011;39538;52.196;9.892;2022-08-07T07:42:39;140.67;;;134.47;;
16693;SDS011;39538;52.196;9.892;2022-08-07T07:45:07;151.73;;;144.90;;
16693;SDS011;39538;52.196;9.892;2022-08-07T07:47:37;148.67;;;142.03;;
16693;SDS011;39538;52.196;9.892;2022-08-07T07:50:09;147.80;;;141.23;;
16693;SDS011;39538;52.196;9.892;2022-08-07T07:52:41;139.33;;;132.63;;
16693;SDS011;39538;52.196;9.892;2022-08-07T07:55:10;151.57;;;145.13;;
16693;SDS011;39538;52.196;9.892;2022-08-07T07:57:38;141.70;;;135.27;;
16693;SDS011;39538;52.196;9.892;2022-08-07T08:00:06;128.73;;;123.07;;
16693;SDS011;39538;52.196;9.892;2022-08-07T08:02:34;126.70;;;121.03;;
16693;SDS011;39538;52.196;9.892;2022-08-07T08:05:05;103.80;;;99.23;;
16693;SDS011;39538;52.196;9.892;2022-08-07T08:07:33;99.43;;;95.23;;
16693;SDS011;39538;52.196;9.892;2022-08-07T08:10:01;99.60;;;95.33;;
16693;SDS011;39538;52.196;9.892;2022-08-07T08:12:29;102.03;;;97.43;;
16693;SDS011;39538;52.196;9.892;2022-08-07T08:14:58;96.20;;;92.00;;
16693;SDS011;39538;52.196;9.892;2022-08-07T08:17:24;107.10;;;102.73;;
16693;SDS011;39538;52.196;9.892;2022-08-07T08:19:54;102.27;;;98.13;;
16693;SDS011;39538;52.196;9.892;2022-08-07T08:22:25;94.17;;;89.70;;
16693;SDS011;39538;52.196;9.892;2022-08-07T08:25:10;92.43;;;88.60;;
16693;SDS011;39538;52.196;9.892;2022-08-07T08:27:55;83.00;;;80.17;;
16693;SDS011;39538;52.196;9.892;2022-08-07T08:30:25;89.03;;;85.77;;
16693;SDS011;39538;52.196;9.892;2022-08-07T08:32:55;81.87;;;79.17;;
16693;SDS011;39538;52.196;9.892;2022-08-07T08:35:24;87.37;;;84.23;;
16693;SDS011;39538;52.196;9.892;2022-08-07T08:37:55;97.20;;;93.13;;
16693;SDS011;39538;52.196;9.892;2022-08-07T08:40:25;98.50;;;94.50;;
16693;SDS011;39538;52.196;9.892;2022-08-07T08:42:57;69.93;;;67.53;;
16693;SDS011;39538;52.196;9.892;2022-08-07T08:45:36;51.70;;;49.97;;
16693;SDS011;39538;52.196;9.892;2022-08-07T08:48:07;53.43;;;51.57;;
16693;SDS011;39538;52.196;9.892;2022-08-07T08:50:38;41.03;;;39.20;;
16693;SDS011;39538;52.196;9.892;2022-08-07T08:53:14;37.80;;;36.60;;
16693;SDS011;39538;52.196;9.892;2022-08-07T08:55:45;32.30;;;31.13;;
16693;SDS011;39538;52.196;9.892;2022-08-07T08:58:18;38.40;;;37.00;;
16693;SDS011;39538;52.196;9.892;2022-08-07T09:01:00;29.30;;;28.40;;
16693;SDS011;39538;52.196;9.892;2022-08-07T09:03:36;27.60;;;26.85;;
16693;SDS011;39538;52.196;9.892;2022-08-07T09:06:14;29.33;;;28.33;;
16693;SDS011;39538;52.196;9.892;2022-08-07T09:08:49;25.30;;;24.65;;
16693;SDS011;39538;52.196;9.892;2022-08-07T09:11:28;22.92;;;22.13;;
16693;SDS011;39538;52.196;9.892;2022-08-07T09:14:07;24.77;;;24.07;;
16693;SDS011;39538;52.196;9.892;2022-08-07T09:16:43;25.40;;;24.60;;
16693;SDS011;39538;52.196;9.892;2022-08-07T09:19:20;21.67;;;21.07;;
16693;SDS011;39538;52.196;9.892;2022-08-07T09:21:59;22.17;;;21.58;;
16693;SDS011;39538;52.196;9.892;2022-08-07T09:24:39;24.65;;;23.92;;
16693;SDS011;39538;52.196;9.892;2022-08-07T09:27:19;26.45;;;25.70;;
16693;SDS011;39538;52.196;9.892;2022-08-07T09:29:55;26.23;;;25.38;;
16693;SDS011;39538;52.196;9.892;2022-08-07T09:32:30;29.92;;;29.05;;
16693;SDS011;39538;52.196;9.892;2022-08-07T09:35:10;29.98;;;29.15;;
16693;SDS011;39538;52.196;9.892;2022-08-07T09:37:43;36.05;;;35.15;;
16693;SDS011;39538;52.196;9.892;2022-08-07T09:40:18;37.70;;;36.60;;
16693;SDS011;39538;52.196;9.892;2022-08-07T09:42:51;41.67;;;40.60;;
16693;SDS011;39538;52.196;9.892;2022-08-07T09:45:27;42.15;;;41.10;;
16693;SDS011;39538;52.196;9.892;2022-08-07T09:48:09;44.03;;;42.70;;
16693;SDS011;39538;52.196;9.892;2022-08-07T09:50:45;41.75;;;40.58;;
16693;SDS011;39538;52.196;9.892;2022-08-07T09:53:24;36.47;;;35.47;;
16693;SDS011;39538;52.196;9.892;2022-08-07T09:56:02;35.38;;;34.25;;
16693;SDS011;39538;52.196;9.892;2022-08-07T09:59:00;36.47;;;34.97;;
16693;SDS011;39538;52.196;9.892;2022-08-07T10:01:46;31.45;;;29.77;;
16693;SDS011;39538;52.196;9.892;2022-08-07T10:04:27;33.70;;;32.67;;
16693;SDS011;39538;52.196;9.892;2022-08-07T10:07:11;32.55;;;31.70;;
16693;SDS011;39538;52.196;9.892;2022-08-07T10:09:51;30.27;;;29.50;;
16693;SDS011;39538;52.196;9.892;2022-08-07T10:12:42;32.47;;;31.27;;
16693;SDS011;39538;52.196;9.892;2022-08-07T10:15:18;36.20;;;35.22;;
16693;SDS011;39538;52.196;9.892;2022-08-07T10:18:07;39.20;;;38.17;;
16693;SDS011;39538;52.196;9.892;2022-08-07T10:20:50;37.28;;;36.17;;
16693;SDS011;39538;52.196;9.892;2022-08-07T10:23:41;47.55;;;46.35;;
16693;SDS011;39538;52.196;9.892;2022-08-07T10:26:23;40.60;;;39.53;;
16693;SDS011;39538;52.196;9.892;2022-08-07T10:29:06;38.05;;;37.10;;
16693;SDS011;39538;52.196;9.892;2022-08-07T10:31:51;40.92;;;39.63;;
16693;SDS011;39538;52.196;9.892;2022-08-07T10:34:32;38.20;;;36.80;;
16693;SDS011;39538;52.196;9.892;2022-08-07T10:37:10;35.28;;;34.38;;
16693;SDS011;39538;52.196;9.892;2022-08-07T10:39:48;34.00;;;32.33;;
16693;SDS011;39538;52.196;9.892;2022-08-07T10:42:27;37.55;;;36.55;;
16693;SDS011;39538;52.196;9.892;2022-08-07T10:45:02;41.60;;;40.47;;
16693;SDS011;39538;52.196;9.892;2022-08-07T10:47:41;54.42;;;52.80;;
16693;SDS011;39538;52.196;9.892;2022-08-07T10:50:16;63.17;;;61.25;;
16693;SDS011;39538;52.196;9.892;2022-08-07T10:52:52;82.32;;;79.50;;
16693;SDS011;39538;52.196;9.892;2022-08-07T10:55:25;105.70;;;101.78;;
16693;SDS011;39538;52.196;9.892;2022-08-07T10:57:55;114.00;;;109.05;;
16693;SDS011;39538;52.196;9.892;2022-08-07T11:00:41;104.57;;;100.75;;
16693;SDS011;39538;52.196;9.892;2022-08-07T11:03:16;143.50;;;137.30;;
16693;SDS011;39538;52.196;9.892;2022-08-07T11:05:53;130.65;;;125.45;;
16693;SDS011;39538;52.196;9.892;2022-08-07T11:08:25;101.20;;;97.47;;
16693;SDS011;39538;52.196;9.892;2022-08-07T11:11:00;67.50;;;65.28;;
16693;SDS011;39538;52.196;9.892;2022-08-07T11:13:31;77.30;;;74.72;;
16693;SDS011;39538;52.196;9.892;2022-08-07T11:16:03;73.05;;;70.78;;
16693;SDS011;39538;52.196;9.892;2022-08-07T11:18:34;64.53;;;62.55;;
16693;SDS011;39538;52.196;9.892;2022-08-07T11:21:06;60.42;;;58.72;;
16693;SDS011;39538;52.196;9.892;2022-08-07T11:23:44;49.33;;;47.83;;
16693;SDS011;39538;52.196;9.892;2022-08-07T11:26:20;48.70;;;47.55;;
16693;SDS011;39538;52.196;9.892;2022-08-07T11:28:52;50.95;;;49.45;;
16693;SDS011;39538;52.196;9.892;2022-08-07T11:31:28;52.60;;;51.13;;
16693;SDS011;39538;52.196;9.892;2022-08-07T11:34:04;45.97;;;44.75;;
16693;SDS011;39538;52.196;9.892;2022-08-07T11:39:28;53.00;;;51.13;;
16693;SDS011;39538;52.196;9.892;2022-08-07T11:42:12;70.20;;;68.15;;
16693;SDS011;39538;52.196;9.892;2022-08-07T11:44:46;62.88;;;61.08;;
16693;SDS011;39538;52.196;9.892;2022-08-07T11:47:24;54.90;;;53.13;;
16693;SDS011;39538;52.196;9.892;2022-08-07T11:50:06;53.08;;;51.60;;
16693;SDS011;39538;52.196;9.892;2022-08-07T11:52:47;35.15;;;34.22;;
16693;SDS011;39538;52.196;9.892;2022-08-07T11:55:30;38.38;;;37.45;;
16693;SDS011;39538;52.196;9.892;2022-08-07T11:58:12;31.15;;;30.42;;
16693;SDS011;39538;52.196;9.892;2022-08-07T12:00:47;39.05;;;38.15;;
16693;SDS011;39538;52.196;9.892;2022-08-07T12:03:32;31.60;;;30.85;;
16693;SDS011;39538;52.196;9.892;2022-08-07T12:06:19;36.10;;;35.22;;
16693;SDS011;39538;52.196;9.892;2022-08-07T12:08:55;34.53;;;33.70;;
16693;SDS011;39538;52.196;9.892;2022-08-07T12:11:27;47.65;;;46.38;;
16693;SDS011;39538;52.196;9.892;2022-08-07T12:14:00;48.65;;;47.17;;
16693;SDS011;39538;52.196;9.892;2022-08-07T12:16:34;61.60;;;59.75;;
16693;SDS011;39538;52.196;9.892;2022-08-07T12:19:09;63.22;;;61.35;;
16693;SDS011;39538;52.196;9.892;2022-08-07T12:21:43;54.13;;;52.50;;
16693;SDS011;39538;52.196;9.892;2022-08-07T12:24:19;73.63;;;70.85;;
16693;SDS011;39538;52.196;9.892;2022-08-07T12:26:52;69.95;;;67.88;;
16693;SDS011;39538;52.196;9.892;2022-08-07T12:29:24;60.50;;;58.72;;
16693;SDS011;39538;52.196;9.892;2022-08-07T12:31:56;65.65;;;63.42;;
16693;SDS011;39538;52.196;9.892;2022-08-07T12:34:26;64.28;;;62.42;;
16693;SDS011;39538;52.196;9.892;2022-08-07T12:36:55;69.10;;;66.78;;
16693;SDS011;39538;52.196;9.892;2022-08-07T12:39:23;62.53;;;60.70;;
16693;SDS011;39538;52.196;9.892;2022-08-07T12:41:51;71.20;;;68.82;;
16693;SDS011;39538;52.196;9.892;2022-08-07T12:44:19;66.45;;;64.55;;
16693;SDS011;39538;52.196;9.892;2022-08-07T12:46:54;87.00;;;83.65;;
16693;SDS011;39538;52.196;9.892;2022-08-07T12:49:33;69.57;;;67.35;;
16693;SDS011;39538;52.196;9.892;2022-08-07T12:52:05;94.05;;;90.47;;
16693;SDS011;39538;52.196;9.892;2022-08-07T12:54:39;105.47;;;101.65;;
16693;SDS011;39538;52.196;9.892;2022-08-07T12:57:12;91.25;;;87.97;;
16693;SDS011;39538;52.196;9.892;2022-08-07T12:59:42;50.33;;;49.00;;
16693;SDS011;39538;52.196;9.892;2022-08-07T13:02:18;42.35;;;41.17;;
16693;SDS011;39538;52.196;9.892;2022-08-07T13:05:04;27.33;;;26.52;;
16693;SDS011;39538;52.196;9.892;2022-08-07T13:07:49;26.25;;;25.65;;
16693;SDS011;39538;52.196;9.892;2022-08-07T13:10:33;24.35;;;23.55;;
16693;SDS011;39538;52.196;9.892;2022-08-07T13:13:10;19.25;;;18.75;;
16693;SDS011;39538;52.196;9.892;2022-08-07T13:15:46;17.42;;;17.05;;
16693;SDS011;39538;52.196;9.892;2022-08-07T13:18:20;21.15;;;20.63;;
16693;SDS011;39538;52.196;9.892;2022-08-07T13:20:58;25.85;;;25.17;;
16693;SDS011;39538;52.196;9.892;2022-08-07T13:23:31;25.65;;;24.85;;
16693;SDS011;39538;52.196;9.892;2022-08-07T13:26:04;27.13;;;26.45;;
16693;SDS011;39538;52.196;9.892;2022-08-07T13:28:38;28.25;;;27.40;;
16693;SDS011;39538;52.196;9.892;2022-08-07T13:31:15;34.25;;;33.40;;
16693;SDS011;39538;52.196;9.892;2022-08-07T13:33:46;33.42;;;32.65;;
16693;SDS011;39538;52.196;9.892;2022-08-07T13:36:18;35.60;;;34.75;;
16693;SDS011;39538;52.196;9.892;2022-08-07T13:38:49;28.60;;;27.90;;
16693;SDS011;39538;52.196;9.892;2022-08-07T13:41:24;29.63;;;28.92;;
16693;SDS011;39538;52.196;9.892;2022-08-07T13:44:00;28.80;;;28.05;;
16693;SDS011;39538;52.196;9.892;2022-08-07T13:46:29;33.15;;;32.17;;
16693;SDS011;39538;52.196;9.892;2022-08-07T13:48:58;35.08;;;34.15;;
16693;SDS011;39538;52.196;9.892;2022-08-07T13:51:28;33.80;;;32.95;;
16693;SDS011;39538;52.196;9.892;2022-08-07T13:53:57;37.05;;;36.05;;
16693;SDS011;39538;52.196;9.892;2022-08-07T13:56:28;38.33;;;37.33;;
16693;SDS011;39538;52.196;9.892;2022-08-07T13:58:57;28.45;;;27.80;;
16693;SDS011;39538;52.196;9.892;2022-08-07T14:01:26;28.30;;;27.65;;
16693;SDS011;39538;52.196;9.892;2022-08-07T14:03:55;27.15;;;26.52;;
16693;SDS011;39538;52.196;9.892;2022-08-07T14:08:52;29.20;;;28.27;;
16693;SDS011;39538;52.196;9.892;2022-08-07T14:11:21;26.55;;;25.85;;
16693;SDS011;39538;52.196;9.892;2022-08-07T14:13:50;24.85;;;24.15;;
16693;SDS011;39538;52.196;9.892;2022-08-07T14:16:32;20.17;;;19.67;;
16693;SDS011;39538;52.196;9.892;2022-08-07T14:19:02;18.70;;;18.25;;
16693;SDS011;39538;52.196;9.892;2022-08-07T14:21:38;25.00;;;24.38;;
16693;SDS011;39538;52.196;9.892;2022-08-07T14:24:11;19.55;;;19.10;;
16693;SDS011;39538;52.196;9.892;2022-08-07T14:26:47;13.63;;;13.30;;
16693;SDS011;39538;52.196;9.892;2022-08-07T14:29:16;18.03;;;17.60;;
16693;SDS011;39538;52.196;9.892;2022-08-07T14:31:45;23.90;;;23.30;;
16693;SDS011;39538;52.196;9.892;2022-08-07T14:34:13;23.30;;;22.63;;
16693;SDS011;39538;52.196;9.892;2022-08-07T14:36:44;21.17;;;20.58;;